sensor_id;sensor_type;location;lat;lon;timestamp;P1;durP1;ratioP1;P2;durP2;ratioP2
68250;SDS011;55066;51.560;4.642;2022-09-03T00:00:20;9.40;;;4.15;;
68250;SDS011;55066;51.560;4.642;2022-09-03T00:02:59;8.10;;;4.00;;
68250;SDS011;55066;51.560;4.642;2022-09-03T00:08:32;7.03;;;3.88;;
68250;SDS011;55066;51.560;4.642;2022-09-03T00:11:10;10.25;;;4.30;;
68250;SDS011;55066;51.560;4.642;2022-09-03T00:13:39;8.85;;;4.32;;
68250;SDS011;55066;51.560;4.642;2022-09-03T00:16:10;7.95;;;4.25;;
68250;SDS011;55066;51.560;4.642;2022-09-03T00:18:44;10.37;;;4.30;;
68250;SDS011;55066;51.560;4.642;2022-09-03T00:21:17;12.02;;;4.43;;
68250;SDS011;55066;51.560;4.642;2022-09-03T00:23:50;9.70;;;4.60;;
68250;SDS011;55066;51.560;4.642;2022-09-03T00:26:18;8.88;;;4.10;;
68250;SDS011;55066;51.560;4.642;2022-09-03T00:29:01;9.50;;;4.22;;
68250;SDS011;55066;51.560;4.642;2022-09-03T00:31:44;7.43;;;4.50;;
68250;SDS011;55066;51.560;4.642;2022-09-03T00:37:00;8.88;;;4.60;;
68250;SDS011;55066;51.560;4.642;2022-09-03T00:39:26;10.70;;;4.17;;
68250;SDS011;55066;51.560;4.642;2022-09-03T00:42:00;8.25;;;4.15;;
68250;SDS011;55066;51.560;4.642;2022-09-03T00:47:23;9.98;;;4.47;;
68250;SDS011;55066;51.560;4.642;2022-09-03T00:50:03;9.87;;;4.00;;
68250;SDS011;55066;51.560;4.642;2022-09-03T00:52:43;7.93;;;4.30;;
68250;SDS011;55066;51.560;4.642;2022-09-03T00:58:13;8.32;;;4.68;;
68250;SDS011;55066;51.560;4.642;2022-09-03T01:00:59;9.95;;;4.53;;
68250;SDS011;55066;51.560;4.642;2022-09-03T01:03:37;12.17;;;4.50;;
68250;SDS011;55066;51.560;4.642;2022-09-03T01:25:37;9.30;;;4.45;;
68250;SDS011;55066;51.560;4.642;2022-09-03T01:33:37;10.18;;;5.10;;
68250;SDS011;55066;51.560;4.642;2022-09-03T01:36:30;9.43;;;4.93;;
68250;SDS011;55066;51.560;4.642;2022-09-03T01:42:20;13.55;;;5.57;;
68250;SDS011;55066;51.560;4.642;2022-09-03T01:59:12;10.90;;;5.60;;
68250;SDS011;55066;51.560;4.642;2022-09-03T02:01:48;12.95;;;5.70;;
68250;SDS011;55066;51.560;4.642;2022-09-03T02:04:22;11.27;;;5.88;;
68250;SDS011;55066;51.560;4.642;2022-09-03T02:06:49;10.27;;;5.35;;
68250;SDS011;55066;51.560;4.642;2022-09-03T02:09:16;13.65;;;6.22;;
68250;SDS011;55066;51.560;4.642;2022-09-03T02:11:43;12.70;;;6.53;;
68250;SDS011;55066;51.560;4.642;2022-09-03T02:14:13;13.60;;;6.05;;
68250;SDS011;55066;51.560;4.642;2022-09-03T02:16:39;14.57;;;6.28;;
68250;SDS011;55066;51.560;4.642;2022-09-03T02:19:06;14.37;;;6.47;;
68250;SDS011;55066;51.560;4.642;2022-09-03T02:21:39;11.70;;;5.95;;
68250;SDS011;55066;51.560;4.642;2022-09-03T02:24:09;13.07;;;5.97;;
68250;SDS011;55066;51.560;4.642;2022-09-03T02:26:34;14.33;;;6.37;;
68250;SDS011;55066;51.560;4.642;2022-09-03T02:29:00;13.43;;;6.32;;
68250;SDS011;55066;51.560;4.642;2022-09-03T02:31:27;15.80;;;6.30;;
68250;SDS011;55066;51.560;4.642;2022-09-03T02:33:52;15.80;;;6.83;;
68250;SDS011;55066;51.560;4.642;2022-09-03T02:36:20;14.40;;;6.50;;
68250;SDS011;55066;51.560;4.642;2022-09-03T02:38:50;15.45;;;7.32;;
68250;SDS011;55066;51.560;4.642;2022-09-03T02:41:16;13.17;;;6.67;;
68250;SDS011;55066;51.560;4.642;2022-09-03T02:43:52;13.80;;;7.33;;
68250;SDS011;55066;51.560;4.642;2022-09-03T02:46:24;16.08;;;8.07;;
68250;SDS011;55066;51.560;4.642;2022-09-03T02:48:56;14.53;;;6.90;;
68250;SDS011;55066;51.560;4.642;2022-09-03T02:51:21;12.73;;;7.03;;
68250;SDS011;55066;51.560;4.642;2022-09-03T02:53:47;16.52;;;7.63;;
68250;SDS011;55066;51.560;4.642;2022-09-03T02:56:12;13.27;;;7.27;;
68250;SDS011;55066;51.560;4.642;2022-09-03T02:58:38;13.93;;;7.70;;
68250;SDS011;55066;51.560;4.642;2022-09-03T03:01:03;16.07;;;7.63;;
68250;SDS011;55066;51.560;4.642;2022-09-03T03:03:29;16.52;;;8.05;;
68250;SDS011;55066;51.560;4.642;2022-09-03T03:05:55;16.00;;;7.78;;
68250;SDS011;55066;51.560;4.642;2022-09-03T03:08:23;14.97;;;7.63;;
68250;SDS011;55066;51.560;4.642;2022-09-03T03:10:52;15.15;;;7.47;;
68250;SDS011;55066;51.560;4.642;2022-09-03T03:13:20;13.65;;;7.40;;
68250;SDS011;55066;51.560;4.642;2022-09-03T03:15:46;15.55;;;7.80;;
68250;SDS011;55066;51.560;4.642;2022-09-03T03:18:13;14.05;;;7.30;;
68250;SDS011;55066;51.560;4.642;2022-09-03T03:20:39;14.97;;;7.97;;
68250;SDS011;55066;51.560;4.642;2022-09-03T03:23:05;13.95;;;7.43;;
68250;SDS011;55066;51.560;4.642;2022-09-03T03:25:32;17.67;;;7.30;;
68250;SDS011;55066;51.560;4.642;2022-09-03T03:27:59;14.60;;;7.72;;
68250;SDS011;55066;51.560;4.642;2022-09-03T03:30:25;16.27;;;7.37;;
68250;SDS011;55066;51.560;4.642;2022-09-03T03:32:51;15.23;;;7.27;;
68250;SDS011;55066;51.560;4.642;2022-09-03T03:35:17;15.38;;;6.70;;
68250;SDS011;55066;51.560;4.642;2022-09-03T03:37:43;17.87;;;7.40;;
68250;SDS011;55066;51.560;4.642;2022-09-03T03:40:08;13.37;;;6.83;;
68250;SDS011;55066;51.560;4.642;2022-09-03T03:42:34;16.97;;;7.20;;
68250;SDS011;55066;51.560;4.642;2022-09-03T03:44:59;14.82;;;6.80;;
68250;SDS011;55066;51.560;4.642;2022-09-03T03:47:27;13.63;;;6.90;;
68250;SDS011;55066;51.560;4.642;2022-09-03T03:49:55;12.03;;;6.63;;
68250;SDS011;55066;51.560;4.642;2022-09-03T03:52:21;13.77;;;6.53;;
68250;SDS011;55066;51.560;4.642;2022-09-03T03:54:46;15.63;;;7.43;;
68250;SDS011;55066;51.560;4.642;2022-09-03T03:57:14;14.07;;;7.20;;
68250;SDS011;55066;51.560;4.642;2022-09-03T03:59:39;13.90;;;6.63;;
68250;SDS011;55066;51.560;4.642;2022-09-03T04:02:06;12.83;;;6.17;;
68250;SDS011;55066;51.560;4.642;2022-09-03T04:04:31;13.00;;;6.20;;
68250;SDS011;55066;51.560;4.642;2022-09-03T04:06:57;13.77;;;5.90;;
68250;SDS011;55066;51.560;4.642;2022-09-03T04:09:22;13.90;;;6.37;;
68250;SDS011;55066;51.560;4.642;2022-09-03T04:11:48;16.30;;;6.32;;
68250;SDS011;55066;51.560;4.642;2022-09-03T04:14:14;11.73;;;6.23;;
68250;SDS011;55066;51.560;4.642;2022-09-03T04:16:42;14.02;;;6.18;;
68250;SDS011;55066;51.560;4.642;2022-09-03T04:19:10;10.90;;;6.20;;
68250;SDS011;55066;51.560;4.642;2022-09-03T04:21:36;14.00;;;5.97;;
68250;SDS011;55066;51.560;4.642;2022-09-03T04:24:03;12.67;;;5.87;;
68250;SDS011;55066;51.560;4.642;2022-09-03T04:26:29;13.07;;;6.43;;
68250;SDS011;55066;51.560;4.642;2022-09-03T04:28:59;12.70;;;5.95;;
68250;SDS011;55066;51.560;4.642;2022-09-03T04:31:30;11.05;;;5.57;;
68250;SDS011;55066;51.560;4.642;2022-09-03T04:33:57;12.63;;;5.32;;
68250;SDS011;55066;51.560;4.642;2022-09-03T04:36:23;14.93;;;5.53;;
68250;SDS011;55066;51.560;4.642;2022-09-03T04:38:51;12.27;;;5.45;;
68250;SDS011;55066;51.560;4.642;2022-09-03T04:41:20;11.65;;;5.60;;
68250;SDS011;55066;51.560;4.642;2022-09-03T04:43:49;11.68;;;5.72;;
68250;SDS011;55066;51.560;4.642;2022-09-03T04:46:15;12.17;;;5.67;;
68250;SDS011;55066;51.560;4.642;2022-09-03T04:48:41;9.57;;;5.00;;
68250;SDS011;55066;51.560;4.642;2022-09-03T04:51:07;8.70;;;5.27;;
68250;SDS011;55066;51.560;4.642;2022-09-03T04:53:36;12.45;;;5.40;;
68250;SDS011;55066;51.560;4.642;2022-09-03T04:56:10;12.38;;;4.88;;
68250;SDS011;55066;51.560;4.642;2022-09-03T04:58:45;11.47;;;4.90;;
68250;SDS011;55066;51.560;4.642;2022-09-03T05:01:16;12.48;;;5.57;;
68250;SDS011;55066;51.560;4.642;2022-09-03T05:03:43;8.82;;;5.07;;
68250;SDS011;55066;51.560;4.642;2022-09-03T05:06:09;12.60;;;5.15;;
68250;SDS011;55066;51.560;4.642;2022-09-03T05:08:34;11.00;;;5.00;;
68250;SDS011;55066;51.560;4.642;2022-09-03T05:11:02;10.38;;;4.90;;
68250;SDS011;55066;51.560;4.642;2022-09-03T05:13:28;9.02;;;4.95;;
68250;SDS011;55066;51.560;4.642;2022-09-03T05:16:01;11.70;;;5.17;;
68250;SDS011;55066;51.560;4.642;2022-09-03T05:18:28;12.55;;;5.05;;
68250;SDS011;55066;51.560;4.642;2022-09-03T05:20:57;11.50;;;4.53;;
68250;SDS011;55066;51.560;4.642;2022-09-03T05:23:24;9.67;;;5.00;;
68250;SDS011;55066;51.560;4.642;2022-09-03T05:25:58;8.93;;;4.25;;
68250;SDS011;55066;51.560;4.642;2022-09-03T05:28:26;8.10;;;4.30;;
68250;SDS011;55066;51.560;4.642;2022-09-03T05:33:25;10.80;;;4.40;;
68250;SDS011;55066;51.560;4.642;2022-09-03T05:35:52;8.95;;;4.47;;
68250;SDS011;55066;51.560;4.642;2022-09-03T05:38:27;10.35;;;4.53;;
68250;SDS011;55066;51.560;4.642;2022-09-03T05:40:53;11.53;;;4.17;;
68250;SDS011;55066;51.560;4.642;2022-09-03T05:43:18;10.00;;;4.60;;
68250;SDS011;55066;51.560;4.642;2022-09-03T05:45:45;6.97;;;4.07;;
68250;SDS011;55066;51.560;4.642;2022-09-03T05:48:10;11.80;;;4.50;;
68250;SDS011;55066;51.560;4.642;2022-09-03T05:50:35;10.23;;;4.10;;
68250;SDS011;55066;51.560;4.642;2022-09-03T05:53:01;7.35;;;4.05;;
68250;SDS011;55066;51.560;4.642;2022-09-03T05:55:26;9.20;;;4.17;;
68250;SDS011;55066;51.560;4.642;2022-09-03T05:57:52;8.68;;;3.90;;
68250;SDS011;55066;51.560;4.642;2022-09-03T06:00:18;11.37;;;4.53;;
68250;SDS011;55066;51.560;4.642;2022-09-03T06:02:51;9.43;;;4.40;;
68250;SDS011;55066;51.560;4.642;2022-09-03T06:05:17;10.52;;;4.07;;
68250;SDS011;55066;51.560;4.642;2022-09-03T06:07:43;8.50;;;4.17;;
68250;SDS011;55066;51.560;4.642;2022-09-03T06:10:09;10.18;;;3.80;;
68250;SDS011;55066;51.560;4.642;2022-09-03T06:12:36;8.35;;;3.97;;
68250;SDS011;55066;51.560;4.642;2022-09-03T06:15:02;7.35;;;3.55;;
68250;SDS011;55066;51.560;4.642;2022-09-03T06:17:29;12.63;;;3.88;;
68250;SDS011;55066;51.560;4.642;2022-09-03T06:19:56;6.90;;;3.63;;
68250;SDS011;55066;51.560;4.642;2022-09-03T06:22:22;7.80;;;3.30;;
68250;SDS011;55066;51.560;4.642;2022-09-03T06:24:49;8.25;;;3.45;;
68250;SDS011;55066;51.560;4.642;2022-09-03T06:27:15;11.23;;;3.47;;
68250;SDS011;55066;51.560;4.642;2022-09-03T06:29:40;8.57;;;3.50;;
68250;SDS011;55066;51.560;4.642;2022-09-03T06:32:05;16.77;;;3.80;;
68250;SDS011;55066;51.560;4.642;2022-09-03T06:34:31;11.63;;;3.90;;
68250;SDS011;55066;51.560;4.642;2022-09-03T06:36:56;7.43;;;3.50;;
68250;SDS011;55066;51.560;4.642;2022-09-03T06:39:22;10.32;;;3.75;;
68250;SDS011;55066;51.560;4.642;2022-09-03T06:41:48;6.30;;;3.60;;
68250;SDS011;55066;51.560;4.642;2022-09-03T06:44:22;6.00;;;3.37;;
68250;SDS011;55066;51.560;4.642;2022-09-03T06:46:48;8.18;;;3.83;;
68250;SDS011;55066;51.560;4.642;2022-09-03T06:49:17;13.67;;;3.70;;
68250;SDS011;55066;51.560;4.642;2022-09-03T06:51:43;9.18;;;3.63;;
68250;SDS011;55066;51.560;4.642;2022-09-03T06:54:09;8.47;;;3.53;;
68250;SDS011;55066;51.560;4.642;2022-09-03T06:56:37;7.57;;;3.90;;
68250;SDS011;55066;51.560;4.642;2022-09-03T06:59:08;10.70;;;3.35;;
68250;SDS011;55066;51.560;4.642;2022-09-03T07:01:35;9.35;;;3.22;;
68250;SDS011;55066;51.560;4.642;2022-09-03T07:04:05;7.50;;;3.40;;
68250;SDS011;55066;51.560;4.642;2022-09-03T07:06:32;5.77;;;3.20;;
68250;SDS011;55066;51.560;4.642;2022-09-03T07:09:07;11.82;;;2.90;;
68250;SDS011;55066;51.560;4.642;2022-09-03T07:11:34;8.05;;;3.22;;
68250;SDS011;55066;51.560;4.642;2022-09-03T07:14:00;5.30;;;3.13;;
68250;SDS011;55066;51.560;4.642;2022-09-03T07:16:35;5.80;;;3.03;;
68250;SDS011;55066;51.560;4.642;2022-09-03T07:19:01;9.43;;;3.50;;
68250;SDS011;55066;51.560;4.642;2022-09-03T07:21:29;6.18;;;3.10;;
68250;SDS011;55066;51.560;4.642;2022-09-03T07:23:58;6.28;;;3.08;;
68250;SDS011;55066;51.560;4.642;2022-09-03T07:26:25;9.98;;;3.50;;
68250;SDS011;55066;51.560;4.642;2022-09-03T07:28:52;7.68;;;2.90;;
68250;SDS011;55066;51.560;4.642;2022-09-03T07:31:22;9.13;;;3.23;;
68250;SDS011;55066;51.560;4.642;2022-09-03T07:33:52;8.48;;;3.17;;
68250;SDS011;55066;51.560;4.642;2022-09-03T07:36:38;5.22;;;2.78;;
68250;SDS011;55066;51.560;4.642;2022-09-03T07:39:08;5.45;;;2.80;;
68250;SDS011;55066;51.560;4.642;2022-09-03T07:41:35;5.95;;;2.97;;
68250;SDS011;55066;51.560;4.642;2022-09-03T07:44:01;7.10;;;2.80;;
68250;SDS011;55066;51.560;4.642;2022-09-03T07:46:29;10.05;;;2.88;;
68250;SDS011;55066;51.560;4.642;2022-09-03T07:48:57;8.43;;;3.40;;
68250;SDS011;55066;51.560;4.642;2022-09-03T07:51:27;12.07;;;3.58;;
68250;SDS011;55066;51.560;4.642;2022-09-03T07:53:55;10.00;;;3.50;;
68250;SDS011;55066;51.560;4.642;2022-09-03T07:56:23;7.57;;;3.00;;
68250;SDS011;55066;51.560;4.642;2022-09-03T07:58:49;7.75;;;3.30;;
68250;SDS011;55066;51.560;4.642;2022-09-03T08:01:15;8.33;;;3.30;;
68250;SDS011;55066;51.560;4.642;2022-09-03T08:03:43;9.70;;;3.10;;
68250;SDS011;55066;51.560;4.642;2022-09-03T08:06:10;7.93;;;2.97;;
68250;SDS011;55066;51.560;4.642;2022-09-03T08:08:36;8.20;;;3.10;;
68250;SDS011;55066;51.560;4.642;2022-09-03T08:11:02;13.37;;;2.83;;
68250;SDS011;55066;51.560;4.642;2022-09-03T08:13:39;7.07;;;3.10;;
68250;SDS011;55066;51.560;4.642;2022-09-03T08:16:07;10.13;;;3.80;;
68250;SDS011;55066;51.560;4.642;2022-09-03T08:18:34;11.35;;;3.35;;
68250;SDS011;55066;51.560;4.642;2022-09-03T08:21:03;6.40;;;3.25;;
68250;SDS011;55066;51.560;4.642;2022-09-03T08:23:35;6.43;;;3.67;;
68250;SDS011;55066;51.560;4.642;2022-09-03T08:26:01;9.63;;;3.65;;
68250;SDS011;55066;51.560;4.642;2022-09-03T08:28:27;7.57;;;3.53;;
68250;SDS011;55066;51.560;4.642;2022-09-03T08:30:52;9.37;;;3.80;;
68250;SDS011;55066;51.560;4.642;2022-09-03T08:33:18;13.23;;;3.87;;
68250;SDS011;55066;51.560;4.642;2022-09-03T08:36:05;8.48;;;3.60;;
68250;SDS011;55066;51.560;4.642;2022-09-03T08:38:33;9.30;;;3.78;;
68250;SDS011;55066;51.560;4.642;2022-09-03T08:41:07;10.68;;;3.47;;
68250;SDS011;55066;51.560;4.642;2022-09-03T08:46:48;11.80;;;3.40;;
68250;SDS011;55066;51.560;4.642;2022-09-03T08:52:27;6.97;;;3.50;;
68250;SDS011;55066;51.560;4.642;2022-09-03T08:57:48;6.87;;;3.30;;
68250;SDS011;55066;51.560;4.642;2022-09-03T09:00:15;10.00;;;3.20;;
68250;SDS011;55066;51.560;4.642;2022-09-03T09:02:47;6.65;;;3.22;;
68250;SDS011;55066;51.560;4.642;2022-09-03T09:05:42;9.77;;;3.10;;
68250;SDS011;55066;51.560;4.642;2022-09-03T09:13:57;7.57;;;2.80;;
68250;SDS011;55066;51.560;4.642;2022-09-03T09:22:00;6.93;;;2.50;;
68250;SDS011;55066;51.560;4.642;2022-09-03T09:24:31;6.53;;;2.60;;
68250;SDS011;55066;51.560;4.642;2022-09-03T09:27:03;7.50;;;2.30;;
68250;SDS011;55066;51.560;4.642;2022-09-03T09:29:31;12.35;;;2.90;;
68250;SDS011;55066;51.560;4.642;2022-09-03T09:32:01;5.82;;;2.70;;
68250;SDS011;55066;51.560;4.642;2022-09-03T09:34:32;5.07;;;2.53;;
68250;SDS011;55066;51.560;4.642;2022-09-03T09:37:00;4.03;;;2.20;;
68250;SDS011;55066;51.560;4.642;2022-09-03T09:39:28;8.88;;;2.58;;
68250;SDS011;55066;51.560;4.642;2022-09-03T09:44:24;5.20;;;2.30;;
68250;SDS011;55066;51.560;4.642;2022-09-03T09:46:50;7.07;;;2.20;;
68250;SDS011;55066;51.560;4.642;2022-09-03T09:49:32;4.18;;;2.25;;
68250;SDS011;55066;51.560;4.642;2022-09-03T09:52:06;5.43;;;2.80;;
68250;SDS011;55066;51.560;4.642;2022-09-03T09:54:36;7.33;;;2.80;;
68250;SDS011;55066;51.560;4.642;2022-09-03T09:57:06;5.05;;;2.50;;
68250;SDS011;55066;51.560;4.642;2022-09-03T09:59:38;6.68;;;2.60;;
68250;SDS011;55066;51.560;4.642;2022-09-03T10:04:40;5.97;;;2.63;;
68250;SDS011;55066;51.560;4.642;2022-09-03T10:09:40;3.90;;;2.35;;
68250;SDS011;55066;51.560;4.642;2022-09-03T10:12:13;4.23;;;2.60;;
68250;SDS011;55066;51.560;4.642;2022-09-03T10:14:56;5.13;;;2.17;;
68250;SDS011;55066;51.560;4.642;2022-09-03T10:17:35;4.80;;;3.00;;
68250;SDS011;55066;51.560;4.642;2022-09-03T10:23:23;5.30;;;2.80;;
68250;SDS011;55066;51.560;4.642;2022-09-03T10:25:59;6.20;;;2.70;;
68250;SDS011;55066;51.560;4.642;2022-09-03T10:28:31;6.53;;;2.67;;
68250;SDS011;55066;51.560;4.642;2022-09-03T10:31:17;5.47;;;2.85;;
68250;SDS011;55066;51.560;4.642;2022-09-03T10:34:21;3.97;;;2.70;;
68250;SDS011;55066;51.560;4.642;2022-09-03T10:40:05;6.20;;;2.83;;
68250;SDS011;55066;51.560;4.642;2022-09-03T10:45:31;5.25;;;3.00;;
68250;SDS011;55066;51.560;4.642;2022-09-03T10:48:29;5.07;;;2.67;;
68250;SDS011;55066;51.560;4.642;2022-09-03T10:51:03;5.90;;;2.97;;
68250;SDS011;55066;51.560;4.642;2022-09-03T10:53:52;6.82;;;2.42;;
68250;SDS011;55066;51.560;4.642;2022-09-03T10:56:21;7.35;;;2.70;;
68250;SDS011;55066;51.560;4.642;2022-09-03T10:58:59;4.88;;;2.50;;
68250;SDS011;55066;51.560;4.642;2022-09-03T11:01:33;4.37;;;2.40;;
68250;SDS011;55066;51.560;4.642;2022-09-03T11:06:58;3.78;;;2.50;;
68250;SDS011;55066;51.560;4.642;2022-09-03T11:09:37;5.10;;;2.40;;
68250;SDS011;55066;51.560;4.642;2022-09-03T11:12:07;6.43;;;2.30;;
68250;SDS011;55066;51.560;4.642;2022-09-03T11:14:43;4.67;;;2.63;;
68250;SDS011;55066;51.560;4.642;2022-09-03T11:17:14;4.85;;;2.28;;
68250;SDS011;55066;51.560;4.642;2022-09-03T11:19:57;5.18;;;2.35;;
68250;SDS011;55066;51.560;4.642;2022-09-03T11:22:42;5.68;;;2.72;;
68250;SDS011;55066;51.560;4.642;2022-09-03T11:25:11;6.82;;;2.35;;
68250;SDS011;55066;51.560;4.642;2022-09-03T11:30:11;4.70;;;2.45;;
68250;SDS011;55066;51.560;4.642;2022-09-03T11:35:12;4.28;;;2.30;;
68250;SDS011;55066;51.560;4.642;2022-09-03T11:37:46;5.18;;;2.20;;
68250;SDS011;55066;51.560;4.642;2022-09-03T11:40:19;4.83;;;2.53;;
68250;SDS011;55066;51.560;4.642;2022-09-03T11:42:46;5.38;;;2.40;;
68250;SDS011;55066;51.560;4.642;2022-09-03T11:45:12;5.70;;;2.30;;
68250;SDS011;55066;51.560;4.642;2022-09-03T11:47:47;6.80;;;2.50;;
68250;SDS011;55066;51.560;4.642;2022-09-03T11:50:32;5.63;;;2.60;;
68250;SDS011;55066;51.560;4.642;2022-09-03T11:55:48;3.63;;;2.35;;
68250;SDS011;55066;51.560;4.642;2022-09-03T11:58:23;5.10;;;2.80;;
68250;SDS011;55066;51.560;4.642;2022-09-03T12:00:53;4.13;;;2.40;;
68250;SDS011;55066;51.560;4.642;2022-09-03T12:03:23;6.35;;;2.75;;
68250;SDS011;55066;51.560;4.642;2022-09-03T12:08:34;7.30;;;2.45;;
68250;SDS011;55066;51.560;4.642;2022-09-03T12:20:10;5.10;;;2.65;;
68250;SDS011;55066;51.560;4.642;2022-09-03T12:22:18;4.88;;;2.53;;
68250;SDS011;55066;51.560;4.642;2022-09-03T12:24:44;7.80;;;3.20;;
68250;SDS011;55066;51.560;4.642;2022-09-03T12:27:11;5.90;;;3.80;;
68250;SDS011;55066;51.560;4.642;2022-09-03T12:29:49;5.38;;;2.85;;
68250;SDS011;55066;51.560;4.642;2022-09-03T12:32:22;3.85;;;2.35;;
68250;SDS011;55066;51.560;4.642;2022-09-03T12:34:48;6.57;;;2.67;;
68250;SDS011;55066;51.560;4.642;2022-09-03T12:37:23;6.82;;;2.80;;
68250;SDS011;55066;51.560;4.642;2022-09-03T12:39:51;3.87;;;2.37;;
68250;SDS011;55066;51.560;4.642;2022-09-03T12:44:54;4.70;;;2.40;;
68250;SDS011;55066;51.560;4.642;2022-09-03T12:47:22;4.07;;;2.47;;
68250;SDS011;55066;51.560;4.642;2022-09-03T12:49:52;7.30;;;2.63;;
68250;SDS011;55066;51.560;4.642;2022-09-03T12:57:29;3.63;;;2.70;;
68250;SDS011;55066;51.560;4.642;2022-09-03T13:00:02;6.75;;;2.63;;
68250;SDS011;55066;51.560;4.642;2022-09-03T13:02:38;3.47;;;2.27;;
68250;SDS011;55066;51.560;4.642;2022-09-03T13:05:19;4.45;;;2.30;;
68250;SDS011;55066;51.560;4.642;2022-09-03T13:07:48;6.35;;;2.38;;
68250;SDS011;55066;51.560;4.642;2022-09-03T13:11:01;4.47;;;2.35;;
68250;SDS011;55066;51.560;4.642;2022-09-03T13:13:21;5.35;;;2.45;;
68250;SDS011;55066;51.560;4.642;2022-09-03T13:19:04;6.03;;;2.47;;
68250;SDS011;55066;51.560;4.642;2022-09-03T13:21:52;5.10;;;2.80;;
68250;SDS011;55066;51.560;4.642;2022-09-03T13:27:30;5.18;;;2.90;;
68250;SDS011;55066;51.560;4.642;2022-09-03T13:30:09;6.73;;;2.50;;
68250;SDS011;55066;51.560;4.642;2022-09-03T13:33:04;6.28;;;2.40;;
68250;SDS011;55066;51.560;4.642;2022-09-03T13:41:22;4.70;;;2.40;;
68250;SDS011;55066;51.560;4.642;2022-09-03T13:46:41;5.85;;;2.80;;
68250;SDS011;55066;51.560;4.642;2022-09-03T13:49:12;7.60;;;2.97;;
68250;SDS011;55066;51.560;4.642;2022-09-03T13:52:07;4.28;;;2.58;;
68250;SDS011;55066;51.560;4.642;2022-09-03T13:54:48;5.13;;;2.78;;
68250;SDS011;55066;51.560;4.642;2022-09-03T13:59:50;4.88;;;2.70;;
68250;SDS011;55066;51.560;4.642;2022-09-03T14:07:42;4.65;;;2.53;;
68250;SDS011;55066;51.560;4.642;2022-09-03T14:18:38;4.15;;;2.45;;
68250;SDS011;55066;51.560;4.642;2022-09-03T14:24:01;3.58;;;2.30;;
68250;SDS011;55066;51.560;4.642;2022-09-03T14:26:51;3.63;;;2.63;;
68250;SDS011;55066;51.560;4.642;2022-09-03T14:29:22;5.43;;;2.60;;
68250;SDS011;55066;51.560;4.642;2022-09-03T14:32:04;5.05;;;2.80;;
68250;SDS011;55066;51.560;4.642;2022-09-03T14:34:59;6.55;;;2.50;;
68250;SDS011;55066;51.560;4.642;2022-09-03T14:46:06;3.40;;;2.40;;
68250;SDS011;55066;51.560;4.642;2022-09-03T14:51:22;6.65;;;2.70;;
68250;SDS011;55066;51.560;4.642;2022-09-03T14:54:01;4.20;;;2.45;;
68250;SDS011;55066;51.560;4.642;2022-09-03T14:56:58;5.53;;;2.63;;
68250;SDS011;55066;51.560;4.642;2022-09-03T15:02:37;4.15;;;2.50;;
68250;SDS011;55066;51.560;4.642;2022-09-03T15:05:46;4.78;;;2.50;;
68250;SDS011;55066;51.560;4.642;2022-09-03T15:11:01;3.97;;;2.53;;
68250;SDS011;55066;51.560;4.642;2022-09-03T15:13:30;4.72;;;2.70;;
68250;SDS011;55066;51.560;4.642;2022-09-03T15:24:33;4.47;;;2.40;;
68250;SDS011;55066;51.560;4.642;2022-09-03T15:30:07;3.42;;;2.60;;
68250;SDS011;55066;51.560;4.642;2022-09-03T15:32:45;4.57;;;2.40;;
68250;SDS011;55066;51.560;4.642;2022-09-03T15:35:25;3.75;;;2.50;;
68250;SDS011;55066;51.560;4.642;2022-09-03T15:38:02;4.73;;;2.60;;
68250;SDS011;55066;51.560;4.642;2022-09-03T15:40:33;4.38;;;2.47;;
68250;SDS011;55066;51.560;4.642;2022-09-03T15:43:10;3.85;;;2.60;;
68250;SDS011;55066;51.560;4.642;2022-09-03T15:53:33;4.47;;;3.10;;
68250;SDS011;55066;51.560;4.642;2022-09-03T15:56:12;6.28;;;2.85;;
68250;SDS011;55066;51.560;4.642;2022-09-03T15:58:47;5.63;;;2.67;;
68250;SDS011;55066;51.560;4.642;2022-09-03T16:09:35;5.13;;;2.70;;
68250;SDS011;55066;51.560;4.642;2022-09-03T16:12:18;6.13;;;2.80;;
68250;SDS011;55066;51.560;4.642;2022-09-03T16:17:32;4.33;;;2.60;;
68250;SDS011;55066;51.560;4.642;2022-09-03T16:20:08;5.15;;;2.65;;
68250;SDS011;55066;51.560;4.642;2022-09-03T16:22:56;5.35;;;3.00;;
68250;SDS011;55066;51.560;4.642;2022-09-03T16:25:30;5.40;;;2.70;;
68250;SDS011;55066;51.560;4.642;2022-09-03T16:28:03;4.00;;;2.53;;
68250;SDS011;55066;51.560;4.642;2022-09-03T16:49:39;6.82;;;2.80;;
68250;SDS011;55066;51.560;4.642;2022-09-03T16:52:19;6.88;;;2.80;;
68250;SDS011;55066;51.560;4.642;2022-09-03T17:00:35;5.18;;;2.90;;
68250;SDS011;55066;51.560;4.642;2022-09-03T17:11:41;9.00;;;3.10;;
68250;SDS011;55066;51.560;4.642;2022-09-03T17:15:14;4.45;;;2.83;;
68250;SDS011;55066;51.560;4.642;2022-09-03T17:20:11;5.13;;;2.60;;
68250;SDS011;55066;51.560;4.642;2022-09-03T17:22:56;6.18;;;2.95;;
68250;SDS011;55066;51.560;4.642;2022-09-03T17:25:56;5.07;;;2.70;;
68250;SDS011;55066;51.560;4.642;2022-09-03T17:37:24;9.88;;;2.90;;
68250;SDS011;55066;51.560;4.642;2022-09-03T17:48:53;4.80;;;2.95;;
68250;SDS011;55066;51.560;4.642;2022-09-03T18:02:22;4.80;;;3.10;;
68250;SDS011;55066;51.560;4.642;2022-09-03T18:05:02;5.10;;;3.00;;
68250;SDS011;55066;51.560;4.642;2022-09-03T18:07:41;4.30;;;2.80;;
68250;SDS011;55066;51.560;4.642;2022-09-03T18:10:18;3.85;;;2.85;;
68250;SDS011;55066;51.560;4.642;2022-09-03T18:16:14;7.00;;;2.85;;
68250;SDS011;55066;51.560;4.642;2022-09-03T18:18:50;4.93;;;2.95;;
68250;SDS011;55066;51.560;4.642;2022-09-03T18:21:21;4.80;;;3.07;;
68250;SDS011;55066;51.560;4.642;2022-09-03T18:24:27;4.45;;;2.90;;
68250;SDS011;55066;51.560;4.642;2022-09-03T18:27:17;4.93;;;2.97;;
68250;SDS011;55066;51.560;4.642;2022-09-03T18:30:08;7.35;;;2.95;;
68250;SDS011;55066;51.560;4.642;2022-09-03T18:32:53;6.75;;;3.15;;
68250;SDS011;55066;51.560;4.642;2022-09-03T18:35:38;6.37;;;3.33;;
68250;SDS011;55066;51.560;4.642;2022-09-03T18:38:24;6.82;;;3.05;;
68250;SDS011;55066;51.560;4.642;2022-09-03T18:56:36;5.95;;;3.08;;
68250;SDS011;55066;51.560;4.642;2022-09-03T19:05:41;5.67;;;3.97;;
68250;SDS011;55066;51.560;4.642;2022-09-03T19:08:28;6.97;;;3.63;;
68250;SDS011;55066;51.560;4.642;2022-09-03T19:14:16;8.65;;;3.75;;
68250;SDS011;55066;51.560;4.642;2022-09-03T19:17:36;5.90;;;3.47;;
68250;SDS011;55066;51.560;4.642;2022-09-03T19:20:44;7.40;;;3.53;;
68250;SDS011;55066;51.560;4.642;2022-09-03T19:23:58;7.45;;;3.90;;
68250;SDS011;55066;51.560;4.642;2022-09-03T19:26:47;8.32;;;4.18;;
68250;SDS011;55066;51.560;4.642;2022-09-03T19:36:15;5.27;;;4.13;;
68250;SDS011;55066;51.560;4.642;2022-09-03T19:42:13;7.85;;;4.63;;
68250;SDS011;55066;51.560;4.642;2022-09-03T19:48:10;7.45;;;4.15;;
68250;SDS011;55066;51.560;4.642;2022-09-03T19:51:10;6.40;;;4.00;;
68250;SDS011;55066;51.560;4.642;2022-09-03T19:54:01;7.00;;;3.88;;
68250;SDS011;55066;51.560;4.642;2022-09-03T19:56:47;7.38;;;4.80;;
68250;SDS011;55066;51.560;4.642;2022-09-03T19:59:34;7.03;;;4.43;;
68250;SDS011;55066;51.560;4.642;2022-09-03T20:02:22;8.40;;;4.63;;
68250;SDS011;55066;51.560;4.642;2022-09-03T20:05:09;8.27;;;4.47;;
68250;SDS011;55066;51.560;4.642;2022-09-03T20:07:58;6.18;;;3.90;;
68250;SDS011;55066;51.560;4.642;2022-09-03T20:10:42;6.70;;;4.47;;
68250;SDS011;55066;51.560;4.642;2022-09-03T20:13:16;6.85;;;4.18;;
68250;SDS011;55066;51.560;4.642;2022-09-03T20:18:29;12.57;;;4.47;;
68250;SDS011;55066;51.560;4.642;2022-09-03T20:23:44;9.00;;;4.80;;
68250;SDS011;55066;51.560;4.642;2022-09-03T20:26:31;7.47;;;5.00;;
68250;SDS011;55066;51.560;4.642;2022-09-03T20:29:19;10.40;;;5.55;;
68250;SDS011;55066;51.560;4.642;2022-09-03T20:34:52;9.07;;;5.10;;
68250;SDS011;55066;51.560;4.642;2022-09-03T20:37:44;7.88;;;5.55;;